sensor_id;sensor_type;location;lat;lon;timestamp;P1;durP1;ratioP1;P2;durP2;ratioP2
21084;SDS011;34247;50.064;19.970;2023-07-20T00:00:13;3.78;;;2.30;;
21084;SDS011;34247;50.064;19.970;2023-07-20T00:01:59;3.90;;;2.42;;
21084;SDS011;34247;50.064;19.970;2023-07-20T00:03:32;6.32;;;4.05;;
21084;SDS011;34247;50.064;19.970;2023-07-20T00:05:06;13.80;;;6.40;;
21084;SDS011;34247;50.064;19.970;2023-07-20T00:06:39;7.85;;;3.55;;
21084;SDS011;34247;50.064;19.970;2023-07-20T00:08:13;4.60;;;2.33;;
21084;SDS011;34247;50.064;19.970;2023-07-20T00:09:46;5.85;;;2.30;;
21084;SDS011;34247;50.064;19.970;2023-07-20T00:11:19;5.00;;;2.33;;
21084;SDS011;34247;50.064;19.970;2023-07-20T00:12:53;3.92;;;2.60;;
21084;SDS011;34247;50.064;19.970;2023-07-20T00:14:26;8.55;;;2.42;;
21084;SDS011;34247;50.064;19.970;2023-07-20T00:15:59;3.50;;;2.25;;
21084;SDS011;34247;50.064;19.970;2023-07-20T00:17:32;3.35;;;1.70;;
21084;SDS011;34247;50.064;19.970;2023-07-20T00:19:05;4.35;;;2.22;;
21084;SDS011;34247;50.064;19.970;2023-07-20T00:20:39;7.85;;;2.42;;
21084;SDS011;34247;50.064;19.970;2023-07-20T00:22:12;4.60;;;2.53;;
21084;SDS011;34247;50.064;19.970;2023-07-20T00:23:45;4.93;;;2.28;;
21084;SDS011;34247;50.064;19.970;2023-07-20T00:25:18;5.15;;;2.03;;
21084;SDS011;34247;50.064;19.970;2023-07-20T00:26:51;4.53;;;2.30;;
21084;SDS011;34247;50.064;19.970;2023-07-20T00:28:24;4.22;;;2.20;;
21084;SDS011;34247;50.064;19.970;2023-07-20T00:29:57;3.13;;;2.13;;
21084;SDS011;34247;50.064;19.970;2023-07-20T00:31:32;2.95;;;2.13;;
21084;SDS011;34247;50.064;19.970;2023-07-20T00:33:09;6.30;;;2.42;;
21084;SDS011;34247;50.064;19.970;2023-07-20T00:34:44;8.20;;;2.08;;
21084;SDS011;34247;50.064;19.970;2023-07-20T00:36:17;5.25;;;2.10;;
21084;SDS011;34247;50.064;19.970;2023-07-20T00:37:50;25.98;;;4.75;;
21084;SDS011;34247;50.064;19.970;2023-07-20T00:39:23;53.97;;;10.88;;
21084;SDS011;34247;50.064;19.970;2023-07-20T00:40:57;35.63;;;7.07;;
21084;SDS011;34247;50.064;19.970;2023-07-20T00:42:33;49.30;;;8.90;;
21084;SDS011;34247;50.064;19.970;2023-07-20T00:44:06;32.75;;;5.70;;
21084;SDS011;34247;50.064;19.970;2023-07-20T00:45:39;53.92;;;9.43;;
21084;SDS011;34247;50.064;19.970;2023-07-20T00:47:13;67.32;;;10.13;;
21084;SDS011;34247;50.064;19.970;2023-07-20T00:48:46;119.90;;;34.42;;
21084;SDS011;34247;50.064;19.970;2023-07-20T00:50:19;41.08;;;17.05;;
21084;SDS011;34247;50.064;19.970;2023-07-20T00:51:52;9.98;;;4.07;;
21084;SDS011;34247;50.064;19.970;2023-07-20T00:53:25;22.13;;;8.82;;
21084;SDS011;34247;50.064;19.970;2023-07-20T00:54:59;10.77;;;4.95;;
21084;SDS011;34247;50.064;19.970;2023-07-20T00:56:33;20.13;;;5.88;;
21084;SDS011;34247;50.064;19.970;2023-07-20T00:58:06;51.33;;;10.80;;
21084;SDS011;34247;50.064;19.970;2023-07-20T00:59:40;21.08;;;6.57;;
21084;SDS011;34247;50.064;19.970;2023-07-20T01:01:13;37.92;;;9.35;;
21084;SDS011;34247;50.064;19.970;2023-07-20T01:02:47;28.48;;;6.65;;
21084;SDS011;34247;50.064;19.970;2023-07-20T01:04:20;49.92;;;10.40;;
21084;SDS011;34247;50.064;19.970;2023-07-20T01:06:15;7.15;;;2.30;;
21084;SDS011;34247;50.064;19.970;2023-07-20T01:08:24;11.55;;;4.93;;
21084;SDS011;34247;50.064;19.970;2023-07-20T01:10:03;19.65;;;6.40;;
21084;SDS011;34247;50.064;19.970;2023-07-20T01:11:43;32.47;;;7.25;;
21084;SDS011;34247;50.064;19.970;2023-07-20T01:13:32;37.97;;;8.38;;
21084;SDS011;34247;50.064;19.970;2023-07-20T01:15:06;32.55;;;6.97;;
21084;SDS011;34247;50.064;19.970;2023-07-20T01:16:40;22.63;;;5.82;;
21084;SDS011;34247;50.064;19.970;2023-07-20T01:18:13;40.60;;;9.20;;
21084;SDS011;34247;50.064;19.970;2023-07-20T01:19:46;28.35;;;6.70;;
21084;SDS011;34247;50.064;19.970;2023-07-20T01:21:33;51.30;;;9.60;;
21084;SDS011;34247;50.064;19.970;2023-07-20T01:23:27;48.97;;;10.05;;
21084;SDS011;34247;50.064;19.970;2023-07-20T01:32:12;61.13;;;10.95;;
21084;SDS011;34247;50.064;19.970;2023-07-20T01:33:50;51.28;;;10.30;;
21084;SDS011;34247;50.064;19.970;2023-07-20T01:35:28;38.08;;;7.68;;
21084;SDS011;34247;50.064;19.970;2023-07-20T01:37:03;28.70;;;6.43;;
21084;SDS011;34247;50.064;19.970;2023-07-20T01:38:38;44.05;;;8.90;;
21084;SDS011;34247;50.064;19.970;2023-07-20T01:40:13;50.80;;;9.57;;
21084;SDS011;34247;50.064;19.970;2023-07-20T01:41:47;45.17;;;8.68;;
21084;SDS011;34247;50.064;19.970;2023-07-20T01:43:22;50.33;;;9.55;;
21084;SDS011;34247;50.064;19.970;2023-07-20T01:44:55;62.33;;;11.95;;
21084;SDS011;34247;50.064;19.970;2023-07-20T01:46:29;42.95;;;8.20;;
21084;SDS011;34247;50.064;19.970;2023-07-20T01:48:02;59.58;;;10.88;;
21084;SDS011;34247;50.064;19.970;2023-07-20T01:49:35;48.22;;;9.18;;
21084;SDS011;34247;50.064;19.970;2023-07-20T01:51:08;45.35;;;8.80;;
21084;SDS011;34247;50.064;19.970;2023-07-20T01:52:41;48.47;;;8.98;;
21084;SDS011;34247;50.064;19.970;2023-07-20T01:54:14;51.78;;;9.43;;
21084;SDS011;34247;50.064;19.970;2023-07-20T01:55:47;47.40;;;8.52;;
21084;SDS011;34247;50.064;19.970;2023-07-20T01:57:20;54.17;;;9.63;;
21084;SDS011;34247;50.064;19.970;2023-07-20T01:58:53;37.35;;;7.47;;
21084;SDS011;34247;50.064;19.970;2023-07-20T02:00:26;36.33;;;7.07;;
21084;SDS011;34247;50.064;19.970;2023-07-20T02:02:00;40.15;;;7.70;;
21084;SDS011;34247;50.064;19.970;2023-07-20T02:03:33;29.83;;;6.10;;
21084;SDS011;34247;50.064;19.970;2023-07-20T02:05:07;45.40;;;7.93;;
21084;SDS011;34247;50.064;19.970;2023-07-20T02:06:40;46.08;;;7.82;;
21084;SDS011;34247;50.064;19.970;2023-07-20T02:08:13;61.53;;;10.30;;
21084;SDS011;34247;50.064;19.970;2023-07-20T02:09:46;38.38;;;7.05;;
21084;SDS011;34247;50.064;19.970;2023-07-20T02:11:19;67.45;;;11.45;;
21084;SDS011;34247;50.064;19.970;2023-07-20T02:12:53;40.92;;;7.35;;
21084;SDS011;34247;50.064;19.970;2023-07-20T02:14:25;44.65;;;8.10;;
21084;SDS011;34247;50.064;19.970;2023-07-20T02:15:58;41.25;;;7.35;;
21084;SDS011;34247;50.064;19.970;2023-07-20T02:17:32;48.63;;;9.05;;
21084;SDS011;34247;50.064;19.970;2023-07-20T02:19:05;43.17;;;8.55;;
21084;SDS011;34247;50.064;19.970;2023-07-20T02:20:38;37.60;;;6.75;;
21084;SDS011;34247;50.064;19.970;2023-07-20T02:22:13;54.63;;;9.27;;
21084;SDS011;34247;50.064;19.970;2023-07-20T02:23:46;52.35;;;8.98;;
21084;SDS011;34247;50.064;19.970;2023-07-20T02:25:20;61.47;;;9.63;;
21084;SDS011;34247;50.064;19.970;2023-07-20T02:26:53;37.28;;;6.50;;
21084;SDS011;34247;50.064;19.970;2023-07-20T02:28:26;25.98;;;4.88;;
21084;SDS011;34247;50.064;19.970;2023-07-20T02:30:00;28.25;;;5.13;;
21084;SDS011;34247;50.064;19.970;2023-07-20T02:31:33;42.63;;;7.45;;
21084;SDS011;34247;50.064;19.970;2023-07-20T02:33:07;32.58;;;6.43;;
21084;SDS011;34247;50.064;19.970;2023-07-20T02:34:40;40.28;;;7.63;;
21084;SDS011;34247;50.064;19.970;2023-07-20T02:36:13;57.35;;;9.20;;
21084;SDS011;34247;50.064;19.970;2023-07-20T02:37:46;28.90;;;6.45;;
21084;SDS011;34247;50.064;19.970;2023-07-20T02:39:19;61.80;;;11.23;;
21084;SDS011;34247;50.064;19.970;2023-07-20T02:40:52;35.75;;;6.70;;
21084;SDS011;34247;50.064;19.970;2023-07-20T02:42:25;36.88;;;7.85;;
21084;SDS011;34247;50.064;19.970;2023-07-20T02:43:58;21.50;;;5.15;;
21084;SDS011;34247;50.064;19.970;2023-07-20T02:45:32;16.65;;;4.45;;
21084;SDS011;34247;50.064;19.970;2023-07-20T02:47:05;20.20;;;4.72;;
21084;SDS011;34247;50.064;19.970;2023-07-20T02:48:38;25.58;;;5.00;;
21084;SDS011;34247;50.064;19.970;2023-07-20T02:50:11;38.03;;;6.95;;
21084;SDS011;34247;50.064;19.970;2023-07-20T02:51:44;26.60;;;5.25;;
21084;SDS011;34247;50.064;19.970;2023-07-20T02:53:17;27.25;;;5.82;;
21084;SDS011;34247;50.064;19.970;2023-07-20T02:54:51;21.42;;;4.35;;
21084;SDS011;34247;50.064;19.970;2023-07-20T02:56:24;48.55;;;9.10;;
21084;SDS011;34247;50.064;19.970;2023-07-20T02:57:57;25.08;;;5.05;;
21084;SDS011;34247;50.064;19.970;2023-07-20T02:59:30;37.20;;;7.00;;
21084;SDS011;34247;50.064;19.970;2023-07-20T03:01:04;37.13;;;7.00;;
21084;SDS011;34247;50.064;19.970;2023-07-20T03:02:38;32.00;;;6.03;;
21084;SDS011;34247;50.064;19.970;2023-07-20T03:04:12;37.90;;;7.40;;
21084;SDS011;34247;50.064;19.970;2023-07-20T03:05:45;37.08;;;6.82;;
21084;SDS011;34247;50.064;19.970;2023-07-20T03:07:18;44.40;;;8.18;;
21084;SDS011;34247;50.064;19.970;2023-07-20T03:08:52;34.15;;;6.28;;
21084;SDS011;34247;50.064;19.970;2023-07-20T03:10:25;50.97;;;9.10;;
21084;SDS011;34247;50.064;19.970;2023-07-20T03:11:58;43.28;;;7.63;;
21084;SDS011;34247;50.064;19.970;2023-07-20T03:13:31;37.92;;;7.70;;
21084;SDS011;34247;50.064;19.970;2023-07-20T03:15:05;47.42;;;8.43;;
21084;SDS011;34247;50.064;19.970;2023-07-20T03:16:39;44.47;;;8.60;;
21084;SDS011;34247;50.064;19.970;2023-07-20T03:18:12;67.80;;;10.90;;
21084;SDS011;34247;50.064;19.970;2023-07-20T03:19:45;40.40;;;7.65;;
21084;SDS011;34247;50.064;19.970;2023-07-20T03:21:18;57.63;;;10.52;;
21084;SDS011;34247;50.064;19.970;2023-07-20T03:22:51;33.92;;;6.80;;
21084;SDS011;34247;50.064;19.970;2023-07-20T03:24:24;54.33;;;10.00;;
21084;SDS011;34247;50.064;19.970;2023-07-20T03:25:57;50.35;;;9.00;;
21084;SDS011;34247;50.064;19.970;2023-07-20T03:27:30;37.33;;;7.38;;
21084;SDS011;34247;50.064;19.970;2023-07-20T03:29:03;24.45;;;5.85;;
21084;SDS011;34247;50.064;19.970;2023-07-20T03:30:37;41.20;;;7.88;;
21084;SDS011;34247;50.064;19.970;2023-07-20T03:32:10;52.17;;;10.07;;
21084;SDS011;34247;50.064;19.970;2023-07-20T03:33:43;43.35;;;8.52;;
21084;SDS011;34247;50.064;19.970;2023-07-20T03:35:16;67.60;;;10.38;;
21084;SDS011;34247;50.064;19.970;2023-07-20T03:36:49;34.53;;;6.72;;
21084;SDS011;34247;50.064;19.970;2023-07-20T03:38:23;54.60;;;9.45;;
21084;SDS011;34247;50.064;19.970;2023-07-20T03:39:57;24.50;;;5.72;;
21084;SDS011;34247;50.064;19.970;2023-07-20T03:41:33;28.52;;;6.10;;
21084;SDS011;34247;50.064;19.970;2023-07-20T03:43:06;38.53;;;7.57;;
21084;SDS011;34247;50.064;19.970;2023-07-20T03:44:39;57.15;;;9.77;;
21084;SDS011;34247;50.064;19.970;2023-07-20T03:46:12;50.97;;;9.25;;
21084;SDS011;34247;50.064;19.970;2023-07-20T03:47:45;45.17;;;8.57;;
21084;SDS011;34247;50.064;19.970;2023-07-20T03:49:18;60.88;;;10.10;;
21084;SDS011;34247;50.064;19.970;2023-07-20T03:50:52;54.70;;;9.23;;
21084;SDS011;34247;50.064;19.970;2023-07-20T03:52:26;60.15;;;10.23;;
21084;SDS011;34247;50.064;19.970;2023-07-20T03:53:59;50.67;;;8.43;;
21084;SDS011;34247;50.064;19.970;2023-07-20T03:55:32;59.92;;;10.80;;
21084;SDS011;34247;50.064;19.970;2023-07-20T03:57:06;31.00;;;6.30;;
21084;SDS011;34247;50.064;19.970;2023-07-20T03:58:39;51.92;;;8.88;;
21084;SDS011;34247;50.064;19.970;2023-07-20T04:00:12;65.18;;;11.35;;
21084;SDS011;34247;50.064;19.970;2023-07-20T04:01:45;48.17;;;8.63;;
21084;SDS011;34247;50.064;19.970;2023-07-20T04:03:19;58.08;;;10.77;;
21084;SDS011;34247;50.064;19.970;2023-07-20T04:04:53;45.72;;;8.43;;
21084;SDS011;34247;50.064;19.970;2023-07-20T04:06:26;70.60;;;12.00;;
21084;SDS011;34247;50.064;19.970;2023-07-20T04:07:59;46.13;;;7.55;;
21084;SDS011;34247;50.064;19.970;2023-07-20T04:09:32;61.70;;;10.35;;
21084;SDS011;34247;50.064;19.970;2023-07-20T04:11:05;21.50;;;6.65;;
21084;SDS011;34247;50.064;19.970;2023-07-20T04:12:38;65.95;;;11.18;;
21084;SDS011;34247;50.064;19.970;2023-07-20T04:14:11;65.55;;;11.52;;
21084;SDS011;34247;50.064;19.970;2023-07-20T04:15:44;52.42;;;9.23;;
21084;SDS011;34247;50.064;19.970;2023-07-20T04:17:18;80.63;;;13.55;;
21084;SDS011;34247;50.064;19.970;2023-07-20T04:18:51;30.55;;;6.20;;
21084;SDS011;34247;50.064;19.970;2023-07-20T04:20:24;53.67;;;9.65;;
21084;SDS011;34247;50.064;19.970;2023-07-20T04:21:57;41.85;;;8.52;;
21084;SDS011;34247;50.064;19.970;2023-07-20T04:23:30;45.33;;;8.90;;
21084;SDS011;34247;50.064;19.970;2023-07-20T04:25:03;42.35;;;8.02;;
21084;SDS011;34247;50.064;19.970;2023-07-20T04:26:37;39.10;;;7.75;;
21084;SDS011;34247;50.064;19.970;2023-07-20T04:28:10;31.00;;;6.53;;
21084;SDS011;34247;50.064;19.970;2023-07-20T04:29:43;33.17;;;6.68;;
21084;SDS011;34247;50.064;19.970;2023-07-20T04:31:16;40.25;;;7.10;;
21084;SDS011;34247;50.064;19.970;2023-07-20T04:32:49;29.00;;;5.90;;
21084;SDS011;34247;50.064;19.970;2023-07-20T04:34:22;45.63;;;9.10;;
21084;SDS011;34247;50.064;19.970;2023-07-20T04:35:56;41.20;;;7.75;;
21084;SDS011;34247;50.064;19.970;2023-07-20T04:37:29;34.25;;;6.70;;
21084;SDS011;34247;50.064;19.970;2023-07-20T04:39:02;38.28;;;7.10;;
21084;SDS011;34247;50.064;19.970;2023-07-20T04:40:39;38.50;;;7.70;;
21084;SDS011;34247;50.064;19.970;2023-07-20T04:42:12;51.30;;;9.88;;
21084;SDS011;34247;50.064;19.970;2023-07-20T04:43:45;47.90;;;10.25;;
21084;SDS011;34247;50.064;19.970;2023-07-20T04:45:19;62.97;;;11.20;;
21084;SDS011;34247;50.064;19.970;2023-07-20T04:46:53;39.75;;;7.57;;
21084;SDS011;34247;50.064;19.970;2023-07-20T04:48:26;41.95;;;9.10;;
21084;SDS011;34247;50.064;19.970;2023-07-20T04:49:59;45.75;;;8.40;;
21084;SDS011;34247;50.064;19.970;2023-07-20T04:51:32;44.20;;;7.85;;
21084;SDS011;34247;50.064;19.970;2023-07-20T04:53:05;33.03;;;6.50;;
21084;SDS011;34247;50.064;19.970;2023-07-20T04:54:38;41.55;;;7.70;;
21084;SDS011;34247;50.064;19.970;2023-07-20T04:56:11;54.20;;;10.23;;
21084;SDS011;34247;50.064;19.970;2023-07-20T04:57:44;37.08;;;7.53;;
21084;SDS011;34247;50.064;19.970;2023-07-20T04:59:18;36.88;;;7.22;;
21084;SDS011;34247;50.064;19.970;2023-07-20T05:00:51;21.83;;;5.63;;
21084;SDS011;34247;50.064;19.970;2023-07-20T05:02:24;39.05;;;9.00;;
21084;SDS011;34247;50.064;19.970;2023-07-20T05:03:57;24.13;;;5.93;;
21084;SDS011;34247;50.064;19.970;2023-07-20T05:05:31;26.38;;;6.30;;
21084;SDS011;34247;50.064;19.970;2023-07-20T05:07:04;26.23;;;6.05;;
21084;SDS011;34247;50.064;19.970;2023-07-20T05:08:37;29.73;;;6.55;;
21084;SDS011;34247;50.064;19.970;2023-07-20T05:10:10;41.47;;;8.23;;
21084;SDS011;34247;50.064;19.970;2023-07-20T05:11:44;39.92;;;8.35;;
21084;SDS011;34247;50.064;19.970;2023-07-20T05:13:17;46.28;;;9.50;;
21084;SDS011;34247;50.064;19.970;2023-07-20T05:14:50;34.08;;;6.47;;
21084;SDS011;34247;50.064;19.970;2023-07-20T05:16:23;58.35;;;10.95;;
21084;SDS011;34247;50.064;19.970;2023-07-20T05:17:57;24.67;;;5.75;;
21084;SDS011;34247;50.064;19.970;2023-07-20T05:19:30;31.75;;;6.18;;
21084;SDS011;34247;50.064;19.970;2023-07-20T05:21:03;40.25;;;7.35;;
21084;SDS011;34247;50.064;19.970;2023-07-20T05:22:39;47.60;;;8.55;;
21084;SDS011;34247;50.064;19.970;2023-07-20T05:24:13;36.55;;;7.45;;
21084;SDS011;34247;50.064;19.970;2023-07-20T05:25:46;29.70;;;6.05;;
21084;SDS011;34247;50.064;19.970;2023-07-20T05:27:19;36.50;;;6.72;;
21084;SDS011;34247;50.064;19.970;2023-07-20T05:28:52;19.05;;;4.63;;
21084;SDS011;34247;50.064;19.970;2023-07-20T05:30:26;31.85;;;6.32;;
21084;SDS011;34247;50.064;19.970;2023-07-20T05:31:59;34.63;;;6.72;;
21084;SDS011;34247;50.064;19.970;2023-07-20T05:33:32;29.23;;;5.95;;
21084;SDS011;34247;50.064;19.970;2023-07-20T05:35:06;28.58;;;5.80;;
21084;SDS011;34247;50.064;19.970;2023-07-20T05:36:40;26.63;;;5.15;;
21084;SDS011;34247;50.064;19.970;2023-07-20T05:38:13;34.85;;;6.30;;
21084;SDS011;34247;50.064;19.970;2023-07-20T05:39:46;32.60;;;6.88;;
21084;SDS011;34247;50.064;19.970;2023-07-20T05:41:19;37.45;;;8.40;;
21084;SDS011;34247;50.064;19.970;2023-07-20T05:42:52;29.67;;;6.63;;
21084;SDS011;34247;50.064;19.970;2023-07-20T05:44:25;26.35;;;6.22;;
21084;SDS011;34247;50.064;19.970;2023-07-20T05:45:58;28.02;;;6.57;;
21084;SDS011;34247;50.064;19.970;2023-07-20T05:47:31;32.47;;;7.18;;
21084;SDS011;34247;50.064;19.970;2023-07-20T05:49:05;27.60;;;6.72;;
21084;SDS011;34247;50.064;19.970;2023-07-20T05:50:41;34.38;;;7.03;;
21084;SDS011;34247;50.064;19.970;2023-07-20T05:52:15;37.60;;;7.45;;
21084;SDS011;34247;50.064;19.970;2023-07-20T05:53:48;32.25;;;6.88;;
21084;SDS011;34247;50.064;19.970;2023-07-20T05:55:21;53.25;;;10.00;;
21084;SDS011;34247;50.064;19.970;2023-07-20T05:56:54;33.88;;;7.03;;
21084;SDS011;34247;50.064;19.970;2023-07-20T05:58:27;38.10;;;7.53;;
21084;SDS011;34247;50.064;19.970;2023-07-20T06:00:00;3.63;;;1.77;;
21084;SDS011;34247;50.064;19.970;2023-07-20T06:01:33;3.90;;;1.70;;
21084;SDS011;34247;50.064;19.970;2023-07-20T06:03:06;1.45;;;0.98;;
21084;SDS011;34247;50.064;19.970;2023-07-20T06:04:39;1.92;;;1.35;;
21084;SDS011;34247;50.064;19.970;2023-07-20T06:06:13;4.80;;;1.50;;
21084;SDS011;34247;50.064;19.970;2023-07-20T06:07:46;2.15;;;1.35;;
21084;SDS011;34247;50.064;19.970;2023-07-20T06:09:19;2.70;;;1.67;;
21084;SDS011;34247;50.064;19.970;2023-07-20T06:10:53;2.25;;;1.73;;
21084;SDS011;34247;50.064;19.970;2023-07-20T06:12:25;3.20;;;1.65;;
21084;SDS011;34247;50.064;19.970;2023-07-20T06:13:59;2.78;;;1.60;;
21084;SDS011;34247;50.064;19.970;2023-07-20T06:15:32;2.17;;;1.38;;
21084;SDS011;34247;50.064;19.970;2023-07-20T06:17:06;3.03;;;1.60;;
21084;SDS011;34247;50.064;19.970;2023-07-20T06:18:39;3.78;;;1.40;;
21084;SDS011;34247;50.064;19.970;2023-07-20T06:20:12;3.22;;;1.17;;
21084;SDS011;34247;50.064;19.970;2023-07-20T06:21:45;3.40;;;1.50;;
21084;SDS011;34247;50.064;19.970;2023-07-20T06:23:19;4.43;;;1.63;;
21084;SDS011;34247;50.064;19.970;2023-07-20T06:24:52;1.52;;;1.23;;
21084;SDS011;34247;50.064;19.970;2023-07-20T06:26:25;3.28;;;1.30;;
21084;SDS011;34247;50.064;19.970;2023-07-20T06:27:58;2.47;;;1.55;;
21084;SDS011;34247;50.064;19.970;2023-07-20T06:29:31;3.50;;;1.52;;
21084;SDS011;34247;50.064;19.970;2023-07-20T06:31:04;2.05;;;1.40;;
21084;SDS011;34247;50.064;19.970;2023-07-20T06:32:39;1.80;;;1.25;;
21084;SDS011;34247;50.064;19.970;2023-07-20T06:34:12;1.90;;;1.30;;
21084;SDS011;34247;50.064;19.970;2023-07-20T06:35:45;1.40;;;1.20;;
21084;SDS011;34247;50.064;19.970;2023-07-20T06:37:18;2.10;;;1.20;;
21084;SDS011;34247;50.064;19.970;2023-07-20T06:38:51;2.42;;;1.75;;
21084;SDS011;34247;50.064;19.970;2023-07-20T06:40:28;3.97;;;1.75;;
21084;SDS011;34247;50.064;19.970;2023-07-20T06:42:03;2.83;;;1.80;;
21084;SDS011;34247;50.064;19.970;2023-07-20T06:43:37;1.45;;;1.05;;
21084;SDS011;34247;50.064;19.970;2023-07-20T06:45:13;2.28;;;1.35;;
21084;SDS011;34247;50.064;19.970;2023-07-20T06:46:46;1.88;;;1.20;;
21084;SDS011;34247;50.064;19.970;2023-07-20T06:48:19;3.33;;;1.48;;
21084;SDS011;34247;50.064;19.970;2023-07-20T06:49:53;3.95;;;1.70;;
21084;SDS011;34247;50.064;19.970;2023-07-20T06:51:27;2.10;;;1.25;;
21084;SDS011;34247;50.064;19.970;2023-07-20T06:53:00;2.22;;;1.30;;
21084;SDS011;34247;50.064;19.970;2023-07-20T06:54:33;3.25;;;1.38;;
21084;SDS011;34247;50.064;19.970;2023-07-20T06:56:08;3.58;;;2.05;;
21084;SDS011;34247;50.064;19.970;2023-07-20T06:57:41;2.15;;;1.50;;
21084;SDS011;34247;50.064;19.970;2023-07-20T06:59:20;2.47;;;1.30;;
21084;SDS011;34247;50.064;19.970;2023-07-20T07:00:52;1.88;;;1.45;;
21084;SDS011;34247;50.064;19.970;2023-07-20T07:02:25;3.55;;;1.55;;
21084;SDS011;34247;50.064;19.970;2023-07-20T07:03:59;3.05;;;1.50;;
21084;SDS011;34247;50.064;19.970;2023-07-20T07:05:35;1.73;;;1.33;;
21084;SDS011;34247;50.064;19.970;2023-07-20T07:07:10;4.47;;;1.70;;
21084;SDS011;34247;50.064;19.970;2023-07-20T07:08:43;2.42;;;1.30;;
21084;SDS011;34247;50.064;19.970;2023-07-20T07:10:16;2.50;;;1.35;;
21084;SDS011;34247;50.064;19.970;2023-07-20T07:11:49;2.92;;;1.40;;
21084;SDS011;34247;50.064;19.970;2023-07-20T07:13:22;1.80;;;1.30;;
21084;SDS011;34247;50.064;19.970;2023-07-20T07:14:56;2.13;;;1.27;;
21084;SDS011;34247;50.064;19.970;2023-07-20T07:16:30;2.53;;;1.30;;
21084;SDS011;34247;50.064;19.970;2023-07-20T07:18:04;2.25;;;1.65;;
21084;SDS011;34247;50.064;19.970;2023-07-20T07:19:37;2.10;;;1.50;;
21084;SDS011;34247;50.064;19.970;2023-07-20T07:21:10;2.97;;;1.70;;
21084;SDS011;34247;50.064;19.970;2023-07-20T07:22:44;4.13;;;1.80;;
21084;SDS011;34247;50.064;19.970;2023-07-20T07:24:18;7.05;;;1.70;;
21084;SDS011;34247;50.064;19.970;2023-07-20T07:25:52;3.00;;;1.15;;
21084;SDS011;34247;50.064;19.970;2023-07-20T07:27:25;2.55;;;1.50;;
21084;SDS011;34247;50.064;19.970;2023-07-20T07:28:58;4.00;;;1.80;;
21084;SDS011;34247;50.064;19.970;2023-07-20T07:30:31;2.50;;;1.50;;
21084;SDS011;34247;50.064;19.970;2023-07-20T07:32:06;3.95;;;1.48;;
21084;SDS011;34247;50.064;19.970;2023-07-20T07:33:40;2.30;;;1.33;;
21084;SDS011;34247;50.064;19.970;2023-07-20T07:35:14;3.83;;;1.70;;
21084;SDS011;34247;50.064;19.970;2023-07-20T07:36:47;2.83;;;1.65;;
21084;SDS011;34247;50.064;19.970;2023-07-20T07:38:20;1.98;;;1.25;;
21084;SDS011;34247;50.064;19.970;2023-07-20T07:40:13;2.90;;;1.30;;
21084;SDS011;34247;50.064;19.970;2023-07-20T07:41:47;1.88;;;1.42;;
21084;SDS011;34247;50.064;19.970;2023-07-20T07:43:20;3.25;;;1.77;;
21084;SDS011;34247;50.064;19.970;2023-07-20T07:44:53;3.05;;;1.73;;
21084;SDS011;34247;50.064;19.970;2023-07-20T07:46:26;2.20;;;1.55;;
21084;SDS011;34247;50.064;19.970;2023-07-20T07:47:59;2.60;;;1.60;;
21084;SDS011;34247;50.064;19.970;2023-07-20T07:49:32;4.32;;;2.05;;
21084;SDS011;34247;50.064;19.970;2023-07-20T07:51:05;1.98;;;1.48;;
21084;SDS011;34247;50.064;19.970;2023-07-20T07:52:38;6.13;;;2.05;;
21084;SDS011;34247;50.064;19.970;2023-07-20T07:54:12;6.45;;;3.00;;
21084;SDS011;34247;50.064;19.970;2023-07-20T07:55:45;4.53;;;2.28;;
21084;SDS011;34247;50.064;19.970;2023-07-20T07:57:20;3.65;;;1.65;;
21084;SDS011;34247;50.064;19.970;2023-07-20T07:58:53;4.00;;;1.83;;
21084;SDS011;34247;50.064;19.970;2023-07-20T08:00:26;4.18;;;1.60;;
21084;SDS011;34247;50.064;19.970;2023-07-20T08:01:59;4.72;;;1.52;;
21084;SDS011;34247;50.064;19.970;2023-07-20T08:03:32;3.13;;;1.75;;
21084;SDS011;34247;50.064;19.970;2023-07-20T08:05:05;2.08;;;1.58;;
21084;SDS011;34247;50.064;19.970;2023-07-20T08:06:39;4.70;;;1.67;;
21084;SDS011;34247;50.064;19.970;2023-07-20T08:08:13;5.55;;;2.03;;
21084;SDS011;34247;50.064;19.970;2023-07-20T08:09:45;10.45;;;1.85;;
21084;SDS011;34247;50.064;19.970;2023-07-20T08:11:18;3.90;;;1.50;;
21084;SDS011;34247;50.064;19.970;2023-07-20T08:12:52;4.03;;;1.60;;
21084;SDS011;34247;50.064;19.970;2023-07-20T08:14:25;2.03;;;1.38;;
21084;SDS011;34247;50.064;19.970;2023-07-20T08:15:58;4.15;;;1.50;;
21084;SDS011;34247;50.064;19.970;2023-07-20T08:17:31;2.70;;;1.35;;
21084;SDS011;34247;50.064;19.970;2023-07-20T08:19:04;3.88;;;1.63;;
21084;SDS011;34247;50.064;19.970;2023-07-20T08:20:37;2.72;;;1.52;;
21084;SDS011;34247;50.064;19.970;2023-07-20T08:22:10;2.47;;;1.65;;
21084;SDS011;34247;50.064;19.970;2023-07-20T08:23:43;2.15;;;1.65;;
21084;SDS011;34247;50.064;19.970;2023-07-20T08:25:17;2.38;;;1.58;;
21084;SDS011;34247;50.064;19.970;2023-07-20T08:26:50;2.42;;;1.60;;
21084;SDS011;34247;50.064;19.970;2023-07-20T08:28:23;5.45;;;1.67;;
21084;SDS011;34247;50.064;19.970;2023-07-20T08:29:59;2.85;;;1.67;;
21084;SDS011;34247;50.064;19.970;2023-07-20T08:31:36;1.90;;;1.27;;
21084;SDS011;34247;50.064;19.970;2023-07-20T08:33:10;2.10;;;1.63;;
21084;SDS011;34247;50.064;19.970;2023-07-20T08:34:47;3.85;;;1.63;;
21084;SDS011;34247;50.064;19.970;2023-07-20T08:36:21;2.28;;;1.45;;
21084;SDS011;34247;50.064;19.970;2023-07-20T08:37:56;3.65;;;1.70;;
21084;SDS011;34247;50.064;19.970;2023-07-20T08:39:30;3.88;;;1.73;;
21084;SDS011;34247;50.064;19.970;2023-07-20T08:41:03;4.93;;;1.88;;
21084;SDS011;34247;50.064;19.970;2023-07-20T08:42:37;3.63;;;1.60;;
21084;SDS011;34247;50.064;19.970;2023-07-20T08:44:12;4.53;;;2.45;;
21084;SDS011;34247;50.064;19.970;2023-07-20T08:45:46;2.70;;;1.70;;
21084;SDS011;34247;50.064;19.970;2023-07-20T08:47:22;2.67;;;1.45;;
21084;SDS011;34247;50.064;19.970;2023-07-20T08:48:58;4.32;;;1.42;;
21084;SDS011;34247;50.064;19.970;2023-07-20T08:50:33;3.92;;;1.70;;
21084;SDS011;34247;50.064;19.970;2023-07-20T08:52:08;3.50;;;1.45;;
21084;SDS011;34247;50.064;19.970;2023-07-20T08:53:43;2.13;;;1.38;;
21084;SDS011;34247;50.064;19.970;2023-07-20T08:55:18;1.85;;;1.15;;
21084;SDS011;34247;50.064;19.970;2023-07-20T08:56:56;2.50;;;1.50;;
21084;SDS011;34247;50.064;19.970;2023-07-20T08:58:34;1.30;;;1.20;;
21084;SDS011;34247;50.064;19.970;2023-07-20T09:00:08;1.20;;;1.00;;
21084;SDS011;34247;50.064;19.970;2023-07-20T09:01:44;2.22;;;1.23;;
21084;SDS011;34247;50.064;19.970;2023-07-20T09:03:19;4.65;;;1.45;;
21084;SDS011;34247;50.064;19.970;2023-07-20T09:04:52;4.55;;;1.58;;
21084;SDS011;34247;50.064;19.970;2023-07-20T09:06:25;2.92;;;1.48;;
21084;SDS011;34247;50.064;19.970;2023-07-20T09:07:59;2.30;;;1.65;;
21084;SDS011;34247;50.064;19.970;2023-07-20T09:09:33;3.67;;;1.30;;
21084;SDS011;34247;50.064;19.970;2023-07-20T09:11:13;2.03;;;1.10;;
21084;SDS011;34247;50.064;19.970;2023-07-20T09:12:47;2.40;;;1.52;;
21084;SDS011;34247;50.064;19.970;2023-07-20T09:14:20;2.10;;;1.10;;
21084;SDS011;34247;50.064;19.970;2023-07-20T09:15:58;1.73;;;1.30;;
21084;SDS011;34247;50.064;19.970;2023-07-20T09:17:31;1.52;;;1.27;;
21084;SDS011;34247;50.064;19.970;2023-07-20T09:19:05;1.42;;;1.05;;